Impacts TAF Board INFO
FOR SITUATIONAL AWARENESS. NOT TO BE USED FOR FLIGHT PLANNING PURPOSES.
IDs:

KPDX - Portland Intl Arpt, OR, US

Issued at 1730 UTC 23 Jun 2018
Updated at 1932 UTC 23 Jun 2018
Potential Impact None Slight Moderate High
Time<<24/20Z 24/21Z 24/22Z 24/23Z 25/00Z 25/01Z 25/02Z 25/03Z 25/04Z 25/05Z 25/06Z 25/07Z 25/08Z
Type
VIS
CIG
Cover
FltCat
WX
WDir
WSpd
WGst

Raw TAF
KPDX 231730Z 2318/2418 31004KT P6SM SCT025 BKN035
  FM232000 33005KT P6SM BKN040
  FM232200 33008KT P6SM SCT045
  FM240800 33003KT P6SM SKC


METAR Board
Radar Display
Forecast Discussion

FOR SITUATIONAL AWARENESS. NOT TO BE USED FOR FLIGHT PLANNING PURPOSES.